Latest Weather Observations for Maroochydore

IDQ60801

Issued at 4:32 am EST Saturday 31 January 2015 (issued every 30 minutes, with the page automatically refreshed every 10 minutes)

About weather observations | Map of weather stations | Latest weather observations for QLD | Other Formats
Station Details ID: 040861 Name: SUNSHINE COAST AIRPORT Lat: -26.60 Lon: 153.09 Height: 3.3 m
Data from the previous 72 hours. | See also: Recent months at Maroochydore
Date/Time
EST
Temp
°C
App
Temp
°C
Dew
Point
Rel
Hum
%
Delta-T
°C
Wind Press
QNH
hPa
Press
MSL
hPa
Rain
since 9 am
mm
Dir
 
Spd
km/h
Gust
km/h
Spd
kts
Gust
kts
31/04:30am 18.4 18.9 17.4 94 0.6 W 11 11 6 6 1007.0 - 0.2
31/04:00am 18.8 19.4 17.8 94 0.6 NW 11 13 6 7 1006.7 - 0.2
31/03:30am 18.8 19.8 17.8 94 0.6 NW 9 13 5 7 1006.6 - 0.2
31/03:00am 18.7 21.3 17.5 93 0.7 CALM 0 0 0 0 1006.8 1006.8 0.2
31/02:30am 19.1 21.9 17.9 93 0.7 CALM 0 0 0 0 1006.7 - 0.2
31/02:00am 18.9 20.3 17.7 93 0.7 NNW 7 9 4 5 1006.7 - 0.2
31/01:30am 19.0 20.0 17.8 93 0.7 NW 9 11 5 6 1007.1 - 0.2
31/01:00am 19.1 20.2 17.9 93 0.7 NW 9 11 5 6 1007.4 - 0.2
31/12:30am 19.1 20.5 17.8 92 0.8 WNW 7 9 4 5 1007.8 - 0.2
31/12:00am 19.2 20.3 17.9 92 0.8 NW 9 11 5 6 1008.1 1008.1 0.2
 
Date/Time
EST
Temp
°C
App
Temp
°C
Dew
Point
Rel
Hum
%
Delta-T
°C
Wind Press
QNH
hPa
Press
MSL
hPa
Rain
since 9 am
mm
Dir
 
Spd
km/h
Gust
km/h
Spd
kts
Gust
kts
30/11:30pm 19.5 20.6 18.0 91 0.9 WNW 9 11 5 6 1008.4 - 0.2
30/11:00pm 19.8 20.9 18.1 90 1.1 WNW 9 11 5 6 1008.5 - 0.2
30/10:30pm 20.4 21.4 18.7 90 1.1 NW 11 13 6 7 1008.6 - 0.2
30/10:00pm 20.5 21.5 18.6 89 1.2 NW 11 13 6 7 1008.6 - 0.2
30/09:30pm 20.7 21.7 18.6 88 1.3 NW 11 13 6 7 1008.6 - 0.2
30/09:00pm 20.8 22.2 18.6 87 1.4 WNW 9 13 5 7 1008.5 1008.5 0.2
30/08:30pm 21.2 22.1 18.4 84 1.7 NW 11 13 6 7 1008.2 - 0.2
30/08:00pm 21.6 22.8 18.2 81 2.1 NNW 9 13 5 7 1007.9 - 0.2
30/07:30pm 22.1 23.0 18.3 79 2.4 N 11 13 6 7 1007.8 - 0.2
30/07:00pm 23.2 23.8 18.7 76 2.8 N 13 19 7 10 1007.6 - 0.2
30/06:30pm 23.9 23.6 18.3 71 3.5 NNE 17 20 9 11 1007.5 - 0.2
30/06:00pm 24.8 25.0 18.5 68 4.0 NNE 15 20 8 11 1007.3 1007.3 0.2
30/05:30pm 25.6 24.7 18.3 64 4.6 NNE 20 28 11 15 1006.9 - 0.2
30/05:00pm 26.0 25.6 18.9 65 4.5 NNE 19 24 10 13 1006.8 - 0.2
30/04:30pm 26.3 26.0 18.2 61 5.1 NNE 17 20 9 11 1006.8 - 0.2
30/04:00pm 26.5 26.5 18.9 63 4.9 NNE 17 22 9 12 1006.9 - 0.2
30/03:30pm 26.9 26.8 20.0 66 4.5 NNE 20 24 11 13 1006.9 - 0.2
30/03:00pm 26.9 26.5 19.3 63 4.9 NE 20 24 11 13 1007.2 1007.2 0.2
30/02:30pm 27.5 27.6 20.3 65 4.7 NE 20 26 11 14 1007.4 - 0.2
30/02:00pm 27.0 26.6 19.4 63 4.9 NE 20 24 11 13 1007.7 - 0.2
30/01:30pm 26.0 26.0 18.9 65 4.5 ENE 17 20 9 11 1008.0 - 0.2
30/01:00pm 25.2 25.3 19.1 69 3.9 ENE 17 22 9 12 1008.5 - 0.2
30/12:30pm 26.1 26.4 19.7 68 4.1 ENE 17 20 9 11 1008.8 - 0.2
30/12:00pm 26.2 27.7 20.5 71 3.7 ENE 13 19 7 10 1009.1 1009.1 0.2
30/11:30am 26.1 27.7 19.2 65 4.4 ENE 9 15 5 8 1009.6 - 0.2
30/11:00am 25.4 27.1 19.3 69 3.9 NE 9 13 5 7 1009.8 - 0.2
30/10:30am 25.1 27.4 20.6 76 2.9 NE 9 15 5 8 1010.2 - 0.2
30/10:00am 24.1 25.4 19.4 75 3.0 NNE 11 15 6 8 1010.2 - 0.0
30/09:30am 23.8 24.5 20.5 82 2.1 NE 17 20 9 11 1010.1 - 0.0
30/09:00am 22.6 22.8 20.1 86 1.6 ENE 19 22 10 12 1010.2 1010.2 28.4
30/08:30am 22.2 22.5 20.3 89 1.2 ENE 19 22 10 12 1010.2 - 28.4
30/08:00am 21.9 23.2 20.2 90 1.1 E 13 20 7 11 1010.1 - 28.4
30/07:30am 21.1 23.4 19.9 93 0.8 S 7 13 4 7 1010.2 - 28.4
30/07:00am 20.6 22.0 19.6 94 0.6 S 11 17 6 9 1009.9 - 28.4
30/06:56am 20.7 21.9 19.9 95 0.5 S 13 17 7 9 1009.8 - 28.4
30/06:40am 20.6 21.4 19.8 95 0.5 S 15 20 8 11 1009.6 - 28.2
30/06:31am 20.4 21.1 19.6 95 0.5 S 15 20 8 11 1009.5 - 28.0
30/06:30am 20.4 21.1 19.6 95 0.5 S 15 20 8 11 1009.5 - 28.0
30/06:05am 20.2 21.8 19.2 94 0.6 SSW 9 15 5 8 1009.4 - 25.4
30/06:00am 20.3 21.3 19.5 95 0.5 SSW 13 19 7 10 1009.3 1009.3 24.6
30/05:49am 20.4 21.1 19.6 95 0.5 SSW 15 20 8 11 1009.1 - 24.4
30/05:30am 20.2 17.3 19.2 94 0.6 S 33 41 18 22 1008.8 - 23.6
30/05:27am 20.2 16.9 19.2 94 0.6 S 35 41 19 22 1008.7 - 22.6
30/05:03am 20.4 20.6 19.4 94 0.6 SSW 17 24 9 13 1008.7 - 21.6
30/05:00am 20.4 21.0 19.4 94 0.6 SSW 15 22 8 12 1008.7 - 21.6
30/04:42am 20.4 21.4 19.4 94 0.6 SSW 13 19 7 10 1008.6 - 21.4
30/04:30am 20.4 21.0 19.4 94 0.6 SSW 15 19 8 10 1008.5 - 21.4
30/04:26am 20.4 21.0 19.4 94 0.6 SSW 15 22 8 12 1008.5 - 21.2
30/04:24am 20.4 20.6 19.4 94 0.6 SSW 17 22 9 12 1008.5 - 21.2
30/04:00am 20.6 19.9 19.6 94 0.6 S 22 28 12 15 1008.5 - 18.2
30/03:43am 20.9 20.7 19.7 93 0.8 S 20 28 11 15 1008.4 - 9.8
30/03:35am 21.1 21.4 19.7 92 0.9 S 17 26 9 14 1008.4 - 4.4
30/03:30am 21.2 22.0 19.8 92 0.9 S 15 24 8 13 1008.4 - 3.4
30/03:00am 21.5 21.9 19.8 90 1.1 S 17 24 9 13 1008.1 1008.1 2.8
30/02:33am 21.3 22.0 19.6 90 1.1 SSW 15 17 8 9 1008.2 - 2.8
30/02:30am 21.4 22.5 19.7 90 1.1 SSW 13 17 7 9 1008.2 - 2.8
30/02:09am 21.5 23.5 20.0 91 1.0 SSW 9 15 5 8 1008.3 - 1.2
30/02:00am 21.3 21.9 19.4 89 1.2 SW 15 19 8 10 1008.2 - 0.0
30/01:30am 22.0 21.8 18.6 81 2.1 WSW 17 19 9 10 1008.5 - 0.0
30/01:00am 24.4 25.2 18.1 68 4.0 E 11 15 6 8 1008.7 - 0.0
30/12:30am 24.6 25.0 18.1 67 4.1 E 13 17 7 9 1008.9 - 0.0
30/12:00am 24.7 24.6 17.9 66 4.3 E 15 19 8 10 1009.1 1009.1 0.0
 
Date/Time
EST
Temp
°C
App
Temp
°C
Dew
Point
Rel
Hum
%
Delta-T
°C
Wind Press
QNH
hPa
Press
MSL
hPa
Rain
since 9 am
mm
Dir
 
Spd
km/h
Gust
km/h
Spd
kts
Gust
kts
29/11:30pm 24.7 24.4 17.4 64 4.5 E 15 20 8 11 1009.3 - 0.0
29/11:00pm 24.5 24.3 17.5 65 4.4 E 15 20 8 11 1009.5 - 0.0
29/10:30pm 24.7 24.4 18.2 67 4.1 E 17 22 9 12 1009.6 - 0.0
29/10:00pm 24.9 24.6 18.3 66 4.2 E 17 24 9 13 1009.6 - 0.0
29/09:30pm 25.0 24.4 18.4 66 4.2 E 19 26 10 14 1009.7 - 0.0
29/09:00pm 25.1 24.3 18.5 67 4.2 E 20 26 11 14 1009.5 1009.5 0.0
29/08:30pm 25.2 24.4 18.4 66 4.3 E 20 26 11 14 1009.3 - 0.0
29/08:00pm 25.3 25.2 18.7 67 4.2 ESE 17 24 9 13 1009.1 - 0.0
29/07:30pm 25.1 24.4 18.3 66 4.3 ESE 19 24 10 13 1008.8 - 0.0
29/07:00pm 25.2 24.2 17.9 64 4.6 E 20 26 11 14 1008.5 - 0.0
29/06:30pm 25.2 24.4 18.4 66 4.3 ESE 20 26 11 14 1008.2 - 0.0
29/06:00pm 25.4 23.9 17.8 62 4.8 ESE 22 30 12 16 1007.6 1007.6 0.0
29/05:30pm 25.9 24.7 18.3 63 4.8 ESE 22 30 12 16 1007.5 - 0.0
29/05:00pm 26.7 26.4 19.1 63 4.9 SE 19 26 10 14 1007.2 - 0.0
29/04:30pm 26.2 25.1 18.6 63 4.8 ESE 22 30 12 16 1007.0 - 0.0
29/04:00pm 27.4 26.6 19.2 61 5.3 SE 22 28 12 15 1006.9 - 0.0
29/03:30pm 27.3 26.0 19.1 61 5.3 SE 24 33 13 18 1006.9 - 0.0
29/03:00pm 27.3 25.4 18.6 59 5.6 SE 26 33 14 18 1006.9 1006.9 0.0
29/02:30pm 27.5 25.7 18.8 59 5.6 SE 26 33 14 18 1007.1 - 0.0
29/02:00pm 27.9 25.9 19.1 58 5.7 SE 28 35 15 19 1007.4 - 0.0
29/01:30pm 28.1 25.9 18.8 57 6.0 SE 28 35 15 19 1007.5 - 0.0
29/01:00pm 28.3 26.7 19.2 57 5.9 SE 26 35 14 19 1007.7 - 0.0
29/12:30pm 27.7 25.3 19.2 60 5.5 SSE 30 41 16 22 1007.9 - 0.0
29/12:00pm 27.4 24.9 18.1 57 5.9 SSE 28 35 15 19 1008.0 1008.0 0.0
29/11:30am 27.6 25.5 18.9 59 5.6 SSE 28 35 15 19 1008.3 - 0.0
29/11:00am 26.8 23.6 17.3 56 5.9 SSE 30 43 16 23 1008.6 - 0.0
29/10:30am 27.1 25.5 18.4 59 5.5 S 24 43 13 23 1008.8 - 0.0
29/10:00am 26.5 24.9 18.4 61 5.1 S 24 39 13 21 1008.7 - 0.0
29/09:30am 24.2 22.7 16.7 63 4.6 S 20 32 11 17 1008.9 - 0.0
29/09:00am 23.4 21.4 16.4 64 4.3 S 22 30 12 16 1008.4 1008.4 3.0
29/08:30am 23.3 21.3 16.4 65 4.2 S 22 30 12 16 1008.5 - 3.0
29/08:00am 23.3 21.9 16.6 66 4.1 SSW 19 26 10 14 1008.3 - 3.0
29/07:30am 23.0 21.8 17.0 69 3.7 SSW 19 24 10 13 1008.3 - 3.0
29/07:00am 22.3 20.8 16.8 71 3.4 SSW 20 24 11 13 1008.0 - 3.0
29/06:30am 21.6 20.2 16.6 73 3.0 SSW 19 26 10 14 1007.6 - 3.0
29/06:00am 21.3 19.8 16.3 73 3.0 S 19 26 10 14 1007.1 1007.1 3.0
29/05:30am 21.3 19.6 16.3 73 3.0 SSW 20 26 11 14 1007.0 - 3.0
29/05:00am 21.2 20.0 16.2 73 3.0 S 17 24 9 13 1006.7 - 3.0
29/04:30am 21.5 19.7 16.0 71 3.3 SSW 20 30 11 16 1006.5 - 3.0
29/04:00am 21.6 19.8 16.1 71 3.3 S 20 26 11 14 1006.2 - 3.0
29/03:30am 21.7 19.6 16.2 71 3.3 SSW 22 32 12 17 1006.4 - 3.0
29/03:00am 21.8 20.4 16.5 72 3.2 S 19 26 10 14 1006.2 1006.2 3.0
29/02:30am 21.9 20.9 16.6 72 3.2 SSW 17 24 9 13 1006.5 - 3.0
29/02:00am 21.8 20.8 16.5 72 3.2 SSW 17 26 9 14 1006.4 - 3.0
29/01:30am 21.9 20.8 16.4 71 3.3 SSW 17 24 9 13 1006.7 - 3.0
29/01:00am 22.0 21.0 16.7 72 3.2 SSW 17 26 9 14 1006.9 - 3.0
29/12:30am 22.1 21.3 17.0 73 3.1 SSW 17 24 9 13 1006.9 - 3.0
29/12:00am 22.4 21.2 17.1 72 3.3 S 19 28 10 15 1007.2 1007.2 3.0
 
Date/Time
EST
Temp
°C
App
Temp
°C
Dew
Point
Rel
Hum
%
Delta-T
°C
Wind Press
QNH
hPa
Press
MSL
hPa
Rain
since 9 am
mm
Dir
 
Spd
km/h
Gust
km/h
Spd
kts
Gust
kts
28/11:30pm 22.6 21.3 17.3 72 3.3 S 20 28 11 15 1007.4 - 3.0
28/11:00pm 22.7 20.3 17.4 72 3.3 S 26 35 14 19 1007.7 - 3.0
28/10:30pm 22.8 20.8 17.5 72 3.3 S 24 35 13 19 1007.7 - 3.0
28/10:00pm 23.0 22.0 17.9 73 3.2 S 20 28 11 15 1007.5 - 3.0
28/09:30pm 23.0 22.3 18.3 75 2.9 S 19 26 10 14 1007.4 - 3.0
28/09:00pm 23.1 22.9 18.6 76 2.8 S 17 20 9 11 1007.5 1007.5 3.0
28/08:30pm 23.0 22.8 18.5 76 2.8 S 17 26 9 14 1007.2 - 3.0
28/08:00pm 23.3 21.9 18.8 76 2.8 S 24 35 13 19 1006.7 - 3.0
28/07:30pm 23.1 23.4 18.8 77 2.7 S 15 22 8 12 1006.7 - 3.0
28/07:00pm 23.2 22.3 19.1 78 2.6 S 22 35 12 19 1006.7 - 3.0
28/06:40pm 23.7 21.5 18.8 74 3.1 S 28 48 15 26 1006.7 - 2.8
28/06:30pm 23.4 23.4 18.9 76 2.9 S 17 28 9 15 1006.4 - 2.8
28/06:00pm 23.7 22.5 18.4 72 3.3 S 22 28 12 15 1006.0 1006.0 2.8
28/05:30pm 24.0 22.5 18.6 72 3.4 S 24 33 13 18 1006.0 - 2.8
28/05:00pm 24.3 22.1 18.7 71 3.6 S 28 39 15 21 1005.4 - 2.8
28/04:30pm 24.9 22.4 19.7 73 3.4 SSE 32 43 17 23 1005.0 - 2.8
28/04:00pm 24.3 22.4 19.4 74 3.1 SSE 28 39 15 21 1005.1 - 2.8
28/03:30pm 24.0 23.7 20.3 80 2.4 SSE 22 33 12 18 1005.4 - 2.8
28/03:00pm 23.1 23.2 20.4 85 1.8 SSE 20 30 11 16 1005.5 1005.5 2.8
28/02:30pm 22.8 23.0 20.1 85 1.7 S 19 26 10 14 1005.4 - 2.8
28/02:00pm 22.9 22.8 19.9 83 1.9 S 20 26 11 14 1005.3 - 2.6
28/01:30pm 22.8 23.4 20.3 86 1.6 S 17 22 9 12 1005.4 - 2.2
28/01:00pm 22.8 24.2 21.1 90 1.1 S 15 20 8 11 1005.7 - 2.0
28/12:30pm 22.5 23.3 20.6 89 1.2 S 17 24 9 13 1006.0 - 0.8
28/12:00pm 22.8 22.8 20.1 85 1.7 S 20 26 11 14 1006.1 1006.1 0.0
28/11:30am 23.4 22.2 19.3 78 2.6 SSW 24 35 13 19 1006.4 - 0.0
28/11:00am 23.5 23.9 20.6 84 1.9 S 19 28 10 15 1006.2 - 0.0
28/10:30am 24.1 24.5 19.8 77 2.8 S 17 26 9 14 1006.3 - 0.0
28/10:00am 24.9 24.9 19.7 73 3.4 S 19 28 10 15 1006.3 - 0.0
28/09:30am 24.7 24.7 19.8 74 3.2 S 19 26 10 14 1005.8 - 0.0
28/09:00am 24.0 24.1 19.9 78 2.7 S 19 28 10 15 1005.9 1005.9 1.4
28/08:30am 23.5 23.3 19.4 78 2.6 S 19 24 10 13 1005.6 - 1.4
28/08:00am 22.4 22.5 19.2 82 2.0 S 17 24 9 13 1005.7 - 1.4
28/07:30am 21.1 20.2 18.3 84 1.7 SSW 20 26 11 14 1005.5 - 1.4
28/07:00am 21.0 20.4 18.8 87 1.4 SSW 20 28 11 15 1005.6 - 1.2
28/06:30am 20.9 20.5 19.0 89 1.2 SSW 19 28 10 15 1005.3 - 1.2
28/06:00am 21.3 20.8 19.2 88 1.3 SSW 20 26 11 14 1004.8 1004.8 1.2
28/05:30am 21.9 22.2 19.6 87 1.5 SSW 17 20 9 11 1004.7 - 1.0
28/05:00am 22.1 21.8 19.6 86 1.6 S 20 30 11 16 1004.6 - 1.0

Other Formats:

Comma delimited format used in spreadsheet applications
http://www.bom.gov.au/fwo/IDQ60801/IDQ60801.94569.axf

JavaScript Object Notation format (JSON) in row-major order
http://www.bom.gov.au/fwo/IDQ60801/IDQ60801.94569.json